sensor_id;sensor_type;location;lat;lon;timestamp;temperature;humidity
8422;DHT22;4248;48.196;10.924;2023-12-04T00:00:01;-12.60;38.80
8422;DHT22;4248;48.196;10.924;2023-12-04T00:02:28;-12.50;38.80
8422;DHT22;4248;48.196;10.924;2023-12-04T00:04:54;-12.40;37.70
8422;DHT22;4248;48.196;10.924;2023-12-04T00:07:19;-12.40;38.80
8422;DHT22;4248;48.196;10.924;2023-12-04T00:09:45;-12.40;38.70
8422;DHT22;4248;48.196;10.924;2023-12-04T00:12:10;-12.40;38.90
8422;DHT22;4248;48.196;10.924;2023-12-04T00:14:36;-12.40;37.90
8422;DHT22;4248;48.196;10.924;2023-12-04T00:17:01;-12.40;38.90
8422;DHT22;4248;48.196;10.924;2023-12-04T00:19:27;-12.30;39.00
8422;DHT22;4248;48.196;10.924;2023-12-04T00:21:52;-12.30;39.00
8422;DHT22;4248;48.196;10.924;2023-12-04T00:24:18;-12.30;39.00
8422;DHT22;4248;48.196;10.924;2023-12-04T00:26:44;-12.30;39.00
8422;DHT22;4248;48.196;10.924;2023-12-04T00:29:09;-12.40;39.00
8422;DHT22;4248;48.196;10.924;2023-12-04T00:31:35;-12.40;39.20
8422;DHT22;4248;48.196;10.924;2023-12-04T00:34:00;-12.40;39.20
8422;DHT22;4248;48.196;10.924;2023-12-04T00:36:26;-12.40;39.20
8422;DHT22;4248;48.196;10.924;2023-12-04T00:38:52;-12.40;39.10
8422;DHT22;4248;48.196;10.924;2023-12-04T00:41:18;-12.30;39.40
8422;DHT22;4248;48.196;10.924;2023-12-04T00:43:43;-12.20;39.30
8422;DHT22;4248;48.196;10.924;2023-12-04T00:46:09;-12.10;39.20
8422;DHT22;4248;48.196;10.924;2023-12-04T00:48:34;-12.00;39.00
8422;DHT22;4248;48.196;10.924;2023-12-04T00:51:00;-11.90;39.00
8422;DHT22;4248;48.196;10.924;2023-12-04T00:53:26;-11.80;39.00
8422;DHT22;4248;48.196;10.924;2023-12-04T00:55:51;-11.70;39.00
8422;DHT22;4248;48.196;10.924;2023-12-04T00:58:17;-11.60;38.90
8422;DHT22;4248;48.196;10.924;2023-12-04T01:00:42;-11.60;39.00
8422;DHT22;4248;48.196;10.924;2023-12-04T01:03:08;-11.50;38.90
8422;DHT22;4248;48.196;10.924;2023-12-04T01:05:34;-11.40;39.00
8422;DHT22;4248;48.196;10.924;2023-12-04T01:07:59;-11.40;39.10
8422;DHT22;4248;48.196;10.924;2023-12-04T01:10:25;-11.40;39.20
8422;DHT22;4248;48.196;10.924;2023-12-04T01:12:50;-11.40;39.20
8422;DHT22;4248;48.196;10.924;2023-12-04T01:15:16;-11.40;39.40
8422;DHT22;4248;48.196;10.924;2023-12-04T01:17:42;-11.40;39.60
8422;DHT22;4248;48.196;10.924;2023-12-04T01:20:07;-11.50;39.70
8422;DHT22;4248;48.196;10.924;2023-12-04T01:22:33;-11.50;40.00
8422;DHT22;4248;48.196;10.924;2023-12-04T01:24:59;-11.60;40.80
8422;DHT22;4248;48.196;10.924;2023-12-04T01:27:24;-11.70;40.50
8422;DHT22;4248;48.196;10.924;2023-12-04T01:29:50;-11.80;40.70
8422;DHT22;4248;48.196;10.924;2023-12-04T01:32:15;-11.90;41.00
8422;DHT22;4248;48.196;10.924;2023-12-04T01:34:41;-12.20;40.30
8422;DHT22;4248;48.196;10.924;2023-12-04T01:37:06;-12.20;41.50
8422;DHT22;4248;48.196;10.924;2023-12-04T01:39:32;-12.30;41.60
8422;DHT22;4248;48.196;10.924;2023-12-04T01:41:57;-12.40;41.60
8422;DHT22;4248;48.196;10.924;2023-12-04T01:44:24;-12.50;41.80
8422;DHT22;4248;48.196;10.924;2023-12-04T01:46:49;-12.60;41.80
8422;DHT22;4248;48.196;10.924;2023-12-04T01:49:15;-12.70;41.80
8422;DHT22;4248;48.196;10.924;2023-12-04T01:51:42;-13.00;41.80
8422;DHT22;4248;48.196;10.924;2023-12-04T01:54:08;-13.20;42.00
8422;DHT22;4248;48.196;10.924;2023-12-04T01:56:34;-13.30;42.30
8422;DHT22;4248;48.196;10.924;2023-12-04T01:59:01;-13.60;42.50
8422;DHT22;4248;48.196;10.924;2023-12-04T02:01:27;-13.80;42.50
8422;DHT22;4248;48.196;10.924;2023-12-04T02:03:54;-13.90;42.60
8422;DHT22;4248;48.196;10.924;2023-12-04T02:06:19;-14.00;42.60
8422;DHT22;4248;48.196;10.924;2023-12-04T02:08:47;-14.20;42.50
8422;DHT22;4248;48.196;10.924;2023-12-04T02:11:13;-14.20;42.40
8422;DHT22;4248;48.196;10.924;2023-12-04T02:13:38;-14.20;42.20
8422;DHT22;4248;48.196;10.924;2023-12-04T02:16:05;-14.20;42.20
8422;DHT22;4248;48.196;10.924;2023-12-04T02:18:34;-14.10;42.10
8422;DHT22;4248;48.196;10.924;2023-12-04T02:21:03;-14.10;41.70
8422;DHT22;4248;48.196;10.924;2023-12-04T02:23:29;-14.00;41.60
8422;DHT22;4248;48.196;10.924;2023-12-04T02:26:10;-14.00;41.30
8422;DHT22;4248;48.196;10.924;2023-12-04T02:28:38;-13.90;41.10
8422;DHT22;4248;48.196;10.924;2023-12-04T02:31:05;-13.90;41.10
8422;DHT22;4248;48.196;10.924;2023-12-04T02:33:33;-13.90;40.90
8422;DHT22;4248;48.196;10.924;2023-12-04T02:36:01;-13.80;40.90
8422;DHT22;4248;48.196;10.924;2023-12-04T02:38:28;-13.90;40.80
8422;DHT22;4248;48.196;10.924;2023-12-04T02:40:54;-13.90;40.80
8422;DHT22;4248;48.196;10.924;2023-12-04T02:43:20;-13.90;40.70
8422;DHT22;4248;48.196;10.924;2023-12-04T02:45:46;-13.90;40.70
8422;DHT22;4248;48.196;10.924;2023-12-04T02:48:11;-13.90;40.70
8422;DHT22;4248;48.196;10.924;2023-12-04T02:50:37;-13.90;40.60
8422;DHT22;4248;48.196;10.924;2023-12-04T02:53:02;-13.90;40.50
8422;DHT22;4248;48.196;10.924;2023-12-04T02:55:28;-13.80;40.40
8422;DHT22;4248;48.196;10.924;2023-12-04T02:57:54;-13.70;40.50
8422;DHT22;4248;48.196;10.924;2023-12-04T03:00:19;-13.70;40.40
8422;DHT22;4248;48.196;10.924;2023-12-04T03:02:45;-13.70;40.50
8422;DHT22;4248;48.196;10.924;2023-12-04T03:05:10;-13.70;40.70
8422;DHT22;4248;48.196;10.924;2023-12-04T03:07:36;-13.90;40.60
8422;DHT22;4248;48.196;10.924;2023-12-04T03:10:02;-13.90;40.70
8422;DHT22;4248;48.196;10.924;2023-12-04T03:12:27;-13.90;40.60
8422;DHT22;4248;48.196;10.924;2023-12-04T03:14:53;-13.90;39.40
8422;DHT22;4248;48.196;10.924;2023-12-04T03:17:18;-13.90;40.50
8422;DHT22;4248;48.196;10.924;2023-12-04T03:19:44;-13.90;40.50
8422;DHT22;4248;48.196;10.924;2023-12-04T03:22:09;-14.00;40.50
8422;DHT22;4248;48.196;10.924;2023-12-04T03:24:35;-14.10;40.60
8422;DHT22;4248;48.196;10.924;2023-12-04T03:27:01;-14.20;40.40
8422;DHT22;4248;48.196;10.924;2023-12-04T03:29:26;-14.20;40.50
8422;DHT22;4248;48.196;10.924;2023-12-04T03:31:52;-14.20;40.50
8422;DHT22;4248;48.196;10.924;2023-12-04T03:34:17;-14.20;40.50
8422;DHT22;4248;48.196;10.924;2023-12-04T03:36:43;-14.10;40.30
8422;DHT22;4248;48.196;10.924;2023-12-04T03:39:08;-14.10;40.10
8422;DHT22;4248;48.196;10.924;2023-12-04T03:41:34;-14.00;40.00
8422;DHT22;4248;48.196;10.924;2023-12-04T03:43:59;-14.00;39.80
8422;DHT22;4248;48.196;10.924;2023-12-04T03:46:25;-14.00;39.60
8422;DHT22;4248;48.196;10.924;2023-12-04T03:48:51;-13.90;39.80
8422;DHT22;4248;48.196;10.924;2023-12-04T03:51:16;-14.00;39.70
8422;DHT22;4248;48.196;10.924;2023-12-04T03:53:42;-13.90;39.60
8422;DHT22;4248;48.196;10.924;2023-12-04T03:56:08;-13.90;39.50
8422;DHT22;4248;48.196;10.924;2023-12-04T03:58:34;-14.00;39.40
8422;DHT22;4248;48.196;10.924;2023-12-04T04:00:59;-14.10;39.50
8422;DHT22;4248;48.196;10.924;2023-12-04T04:03:25;-14.20;39.50
8422;DHT22;4248;48.196;10.924;2023-12-04T04:05:51;-14.10;39.70
8422;DHT22;4248;48.196;10.924;2023-12-04T04:08:16;-14.10;39.60
8422;DHT22;4248;48.196;10.924;2023-12-04T04:10:42;-14.00;39.40
8422;DHT22;4248;48.196;10.924;2023-12-04T04:13:09;-13.90;39.30
8422;DHT22;4248;48.196;10.924;2023-12-04T04:15:34;-13.80;39.00
8422;DHT22;4248;48.196;10.924;2023-12-04T04:18:00;-13.60;38.90
8422;DHT22;4248;48.196;10.924;2023-12-04T04:20:25;-13.40;38.70
8422;DHT22;4248;48.196;10.924;2023-12-04T04:22:51;-13.30;38.30
8422;DHT22;4248;48.196;10.924;2023-12-04T04:25:17;-13.20;38.10
8422;DHT22;4248;48.196;10.924;2023-12-04T04:27:44;-13.10;37.90
8422;DHT22;4248;48.196;10.924;2023-12-04T04:30:09;-13.00;37.60
8422;DHT22;4248;48.196;10.924;2023-12-04T04:32:36;-12.90;37.50
8422;DHT22;4248;48.196;10.924;2023-12-04T04:35:01;-12.80;37.50
8422;DHT22;4248;48.196;10.924;2023-12-04T04:40:03;-11.80;38.40
8422;DHT22;4248;48.196;10.924;2023-12-04T04:42:29;-12.60;37.60
8422;DHT22;4248;48.196;10.924;2023-12-04T04:44:54;-12.60;37.70
8422;DHT22;4248;48.196;10.924;2023-12-04T04:47:20;-12.60;37.90
8422;DHT22;4248;48.196;10.924;2023-12-04T04:49:46;-12.60;38.20
8422;DHT22;4248;48.196;10.924;2023-12-04T04:52:11;-12.80;38.30
8422;DHT22;4248;48.196;10.924;2023-12-04T04:54:37;-12.80;38.70
8422;DHT22;4248;48.196;10.924;2023-12-04T04:57:03;-12.80;38.70
8422;DHT22;4248;48.196;10.924;2023-12-04T04:59:29;-12.80;37.90
8422;DHT22;4248;48.196;10.924;2023-12-04T05:01:56;-12.80;38.80
8422;DHT22;4248;48.196;10.924;2023-12-04T05:04:22;-12.90;38.90
8422;DHT22;4248;48.196;10.924;2023-12-04T05:06:47;-13.00;39.00
8422;DHT22;4248;48.196;10.924;2023-12-04T05:09:13;-13.10;39.20
8422;DHT22;4248;48.196;10.924;2023-12-04T05:11:39;-13.10;39.30
8422;DHT22;4248;48.196;10.924;2023-12-04T05:14:04;-13.10;39.30
8422;DHT22;4248;48.196;10.924;2023-12-04T05:16:30;-13.00;39.30
8422;DHT22;4248;48.196;10.924;2023-12-04T05:18:56;-12.90;39.10
8422;DHT22;4248;48.196;10.924;2023-12-04T05:21:21;-12.70;39.00
8422;DHT22;4248;48.196;10.924;2023-12-04T05:23:47;-12.90;38.80
8422;DHT22;4248;48.196;10.924;2023-12-04T05:26:13;-13.00;38.60
8422;DHT22;4248;48.196;10.924;2023-12-04T05:28:39;-12.90;38.80
8422;DHT22;4248;48.196;10.924;2023-12-04T05:31:05;-12.90;38.70
8422;DHT22;4248;48.196;10.924;2023-12-04T05:33:30;-12.80;38.60
8422;DHT22;4248;48.196;10.924;2023-12-04T05:35:56;-12.80;38.70
8422;DHT22;4248;48.196;10.924;2023-12-04T05:38:22;-12.80;38.70
8422;DHT22;4248;48.196;10.924;2023-12-04T05:40:47;-12.70;38.60
8422;DHT22;4248;48.196;10.924;2023-12-04T05:43:14;-12.60;38.30
8422;DHT22;4248;48.196;10.924;2023-12-04T05:45:39;-12.60;38.30
8422;DHT22;4248;48.196;10.924;2023-12-04T05:48:05;-12.60;38.20
8422;DHT22;4248;48.196;10.924;2023-12-04T05:50:31;-12.50;38.20
8422;DHT22;4248;48.196;10.924;2023-12-04T05:52:57;-12.50;38.20
8422;DHT22;4248;48.196;10.924;2023-12-04T05:55:24;-12.40;38.20
8422;DHT22;4248;48.196;10.924;2023-12-04T05:57:49;-12.40;38.20
8422;DHT22;4248;48.196;10.924;2023-12-04T06:00:15;-12.30;38.30
8422;DHT22;4248;48.196;10.924;2023-12-04T06:02:42;-12.30;38.40
8422;DHT22;4248;48.196;10.924;2023-12-04T06:05:08;-12.20;38.40
8422;DHT22;4248;48.196;10.924;2023-12-04T06:07:38;-12.10;38.20
8422;DHT22;4248;48.196;10.924;2023-12-04T06:10:04;-11.90;38.00
8422;DHT22;4248;48.196;10.924;2023-12-04T06:12:30;-11.80;37.90
8422;DHT22;4248;48.196;10.924;2023-12-04T06:14:56;-11.80;37.70
8422;DHT22;4248;48.196;10.924;2023-12-04T06:17:24;-11.70;37.90
8422;DHT22;4248;48.196;10.924;2023-12-04T06:19:49;-11.80;37.90
8422;DHT22;4248;48.196;10.924;2023-12-04T06:22:16;-11.80;38.20
8422;DHT22;4248;48.196;10.924;2023-12-04T06:24:44;-11.80;38.20
8422;DHT22;4248;48.196;10.924;2023-12-04T06:27:13;-11.70;38.20
8422;DHT22;4248;48.196;10.924;2023-12-04T06:29:40;-11.70;38.20
8422;DHT22;4248;48.196;10.924;2023-12-04T06:32:06;-11.60;37.90
8422;DHT22;4248;48.196;10.924;2023-12-04T06:34:33;-11.50;37.80
8422;DHT22;4248;48.196;10.924;2023-12-04T06:36:59;-11.50;37.60
8422;DHT22;4248;48.196;10.924;2023-12-04T06:39:32;-11.40;36.60
8422;DHT22;4248;48.196;10.924;2023-12-04T06:41:58;-11.40;37.70
8422;DHT22;4248;48.196;10.924;2023-12-04T06:44:24;-11.30;37.80
8422;DHT22;4248;48.196;10.924;2023-12-04T06:46:52;-11.30;37.90
8422;DHT22;4248;48.196;10.924;2023-12-04T06:49:18;-11.30;37.90
8422;DHT22;4248;48.196;10.924;2023-12-04T06:51:44;-11.20;37.80
8422;DHT22;4248;48.196;10.924;2023-12-04T06:54:10;-11.10;37.70
8422;DHT22;4248;48.196;10.924;2023-12-04T06:56:37;-11.00;37.50
8422;DHT22;4248;48.196;10.924;2023-12-04T06:59:03;-10.90;37.40
8422;DHT22;4248;48.196;10.924;2023-12-04T07:01:29;-10.80;37.20
8422;DHT22;4248;48.196;10.924;2023-12-04T07:03:55;-10.70;37.30
8422;DHT22;4248;48.196;10.924;2023-12-04T07:06:20;-10.70;37.20
8422;DHT22;4248;48.196;10.924;2023-12-04T07:08:46;-10.70;37.30
8422;DHT22;4248;48.196;10.924;2023-12-04T07:11:12;-10.70;37.60
8422;DHT22;4248;48.196;10.924;2023-12-04T07:13:42;-10.60;37.70
8422;DHT22;4248;48.196;10.924;2023-12-04T07:16:08;-10.60;37.50
8422;DHT22;4248;48.196;10.924;2023-12-04T07:18:34;-10.60;37.60
8422;DHT22;4248;48.196;10.924;2023-12-04T07:21:00;-10.50;37.70
8422;DHT22;4248;48.196;10.924;2023-12-04T07:23:26;-10.60;37.40
8422;DHT22;4248;48.196;10.924;2023-12-04T07:25:52;-10.70;37.70
8422;DHT22;4248;48.196;10.924;2023-12-04T07:28:18;-10.80;37.80
8422;DHT22;4248;48.196;10.924;2023-12-04T07:30:45;-10.80;37.90
8422;DHT22;4248;48.196;10.924;2023-12-04T07:33:10;-10.70;38.20
8422;DHT22;4248;48.196;10.924;2023-12-04T07:35:36;-10.70;38.20
8422;DHT22;4248;48.196;10.924;2023-12-04T07:38:01;-10.70;38.30
8422;DHT22;4248;48.196;10.924;2023-12-04T07:40:28;-10.60;38.50
8422;DHT22;4248;48.196;10.924;2023-12-04T07:42:54;-10.50;38.30
8422;DHT22;4248;48.196;10.924;2023-12-04T07:45:19;-10.40;38.30
8422;DHT22;4248;48.196;10.924;2023-12-04T07:47:46;-10.30;38.00
8422;DHT22;4248;48.196;10.924;2023-12-04T07:50:12;-10.20;37.90
8422;DHT22;4248;48.196;10.924;2023-12-04T07:52:38;-10.20;37.90
8422;DHT22;4248;48.196;10.924;2023-12-04T07:55:04;-10.10;38.00
8422;DHT22;4248;48.196;10.924;2023-12-04T07:57:30;-10.00;37.80
8422;DHT22;4248;48.196;10.924;2023-12-04T07:59:55;-9.80;37.60
8422;DHT22;4248;48.196;10.924;2023-12-04T08:02:21;-9.60;37.20
8422;DHT22;4248;48.196;10.924;2023-12-04T08:04:46;-9.40;36.60
8422;DHT22;4248;48.196;10.924;2023-12-04T08:07:12;-9.30;36.10
8422;DHT22;4248;48.196;10.924;2023-12-04T08:09:38;-9.10;35.20
8422;DHT22;4248;48.196;10.924;2023-12-04T08:12:04;-9.10;36.20
8422;DHT22;4248;48.196;10.924;2023-12-04T08:14:30;-9.00;36.30
8422;DHT22;4248;48.196;10.924;2023-12-04T08:16:56;-8.90;36.40
8422;DHT22;4248;48.196;10.924;2023-12-04T08:19:22;-8.50;35.00
8422;DHT22;4248;48.196;10.924;2023-12-04T08:21:49;-8.50;36.00
8422;DHT22;4248;48.196;10.924;2023-12-04T08:24:15;-8.40;35.60
8422;DHT22;4248;48.196;10.924;2023-12-04T08:26:46;-8.30;35.70
8422;DHT22;4248;48.196;10.924;2023-12-04T08:29:12;-8.10;35.60
8422;DHT22;4248;48.196;10.924;2023-12-04T08:31:38;-8.00;35.30
8422;DHT22;4248;48.196;10.924;2023-12-04T08:34:03;-7.90;35.50
8422;DHT22;4248;48.196;10.924;2023-12-04T08:36:29;-7.70;35.60
8422;DHT22;4248;48.196;10.924;2023-12-04T08:38:55;-7.60;35.30
8422;DHT22;4248;48.196;10.924;2023-12-04T08:41:21;-7.50;35.40
8422;DHT22;4248;48.196;10.924;2023-12-04T08:43:46;-7.40;35.40
8422;DHT22;4248;48.196;10.924;2023-12-04T08:46:15;-7.30;35.50
8422;DHT22;4248;48.196;10.924;2023-12-04T08:48:41;-7.20;35.50
8422;DHT22;4248;48.196;10.924;2023-12-04T08:51:07;-7.10;35.70
8422;DHT22;4248;48.196;10.924;2023-12-04T08:53:36;-7.10;35.40
8422;DHT22;4248;48.196;10.924;2023-12-04T08:56:02;-7.00;35.40
8422;DHT22;4248;48.196;10.924;2023-12-04T08:58:28;-6.90;35.50
8422;DHT22;4248;48.196;10.924;2023-12-04T09:00:54;-6.90;35.50
8422;DHT22;4248;48.196;10.924;2023-12-04T09:03:19;-6.80;35.80
8422;DHT22;4248;48.196;10.924;2023-12-04T09:05:46;-6.60;35.70
8422;DHT22;4248;48.196;10.924;2023-12-04T09:08:11;-6.50;35.80
8422;DHT22;4248;48.196;10.924;2023-12-04T09:10:38;-6.40;35.70
8422;DHT22;4248;48.196;10.924;2023-12-04T09:13:04;-6.10;35.20
8422;DHT22;4248;48.196;10.924;2023-12-04T09:15:30;-5.90;34.80
8422;DHT22;4248;48.196;10.924;2023-12-04T09:17:55;-5.60;34.30
8422;DHT22;4248;48.196;10.924;2023-12-04T09:20:21;-5.50;34.10
8422;DHT22;4248;48.196;10.924;2023-12-04T09:22:46;-5.40;34.30
8422;DHT22;4248;48.196;10.924;2023-12-04T09:25:12;-5.30;34.40
8422;DHT22;4248;48.196;10.924;2023-12-04T09:27:38;-5.10;34.40
8422;DHT22;4248;48.196;10.924;2023-12-04T09:30:07;-4.90;34.40
8422;DHT22;4248;48.196;10.924;2023-12-04T09:32:33;-4.80;34.10
8422;DHT22;4248;48.196;10.924;2023-12-04T09:34:58;-4.60;33.80
8422;DHT22;4248;48.196;10.924;2023-12-04T09:37:24;-4.60;33.60
8422;DHT22;4248;48.196;10.924;2023-12-04T09:39:50;-4.50;33.40
8422;DHT22;4248;48.196;10.924;2023-12-04T09:42:17;-4.40;33.40
8422;DHT22;4248;48.196;10.924;2023-12-04T09:44:44;-4.40;33.70
8422;DHT22;4248;48.196;10.924;2023-12-04T09:47:11;-4.20;33.40
8422;DHT22;4248;48.196;10.924;2023-12-04T09:49:37;-4.00;31.40
8422;DHT22;4248;48.196;10.924;2023-12-04T09:52:04;-4.00;32.50
8422;DHT22;4248;48.196;10.924;2023-12-04T09:54:30;-3.70;32.80
8422;DHT22;4248;48.196;10.924;2023-12-04T09:56:56;-3.50;32.60
8422;DHT22;4248;48.196;10.924;2023-12-04T09:59:24;-3.30;32.90
8422;DHT22;4248;48.196;10.924;2023-12-04T10:01:54;-2.80;32.30
8422;DHT22;4248;48.196;10.924;2023-12-04T10:04:20;-2.70;31.60
8422;DHT22;4248;48.196;10.924;2023-12-04T10:06:51;-2.60;31.60
8422;DHT22;4248;48.196;10.924;2023-12-04T10:09:18;-2.60;31.70
8422;DHT22;4248;48.196;10.924;2023-12-04T10:11:47;-2.60;31.70
8422;DHT22;4248;48.196;10.924;2023-12-04T10:14:17;-2.70;32.20
8422;DHT22;4248;48.196;10.924;2023-12-04T10:16:44;-2.70;32.60
8422;DHT22;4248;48.196;10.924;2023-12-04T10:21:56;-2.60;32.70
8422;DHT22;4248;48.196;10.924;2023-12-04T10:24:42;-2.50;32.70
8422;DHT22;4248;48.196;10.924;2023-12-04T10:27:09;-2.40;32.60
8422;DHT22;4248;48.196;10.924;2023-12-04T10:32:08;-2.20;32.50
8422;DHT22;4248;48.196;10.924;2023-12-04T10:34:33;-2.10;32.20
8422;DHT22;4248;48.196;10.924;2023-12-04T10:36:59;-2.10;33.10
8422;DHT22;4248;48.196;10.924;2023-12-04T10:39:25;-2.10;30.90
8422;DHT22;4248;48.196;10.924;2023-12-04T10:42:03;-2.30;30.50
8422;DHT22;4248;48.196;10.924;2023-12-04T10:44:32;-2.40;30.00
8422;DHT22;4248;48.196;10.924;2023-12-04T10:47:00;-2.40;29.70
8422;DHT22;4248;48.196;10.924;2023-12-04T10:49:27;-2.40;28.40
8422;DHT22;4248;48.196;10.924;2023-12-04T10:51:57;-2.50;29.10
8422;DHT22;4248;48.196;10.924;2023-12-04T10:54:25;-2.60;29.10
8422;DHT22;4248;48.196;10.924;2023-12-04T10:56:52;-2.50;29.60
8422;DHT22;4248;48.196;10.924;2023-12-04T10:59:27;-2.40;28.40
8422;DHT22;4248;48.196;10.924;2023-12-04T11:01:57;-2.40;29.20
8422;DHT22;4248;48.196;10.924;2023-12-04T11:04:26;-2.20;29.20
8422;DHT22;4248;48.196;10.924;2023-12-04T11:06:53;-2.10;28.90
8422;DHT22;4248;48.196;10.924;2023-12-04T11:09:22;-1.90;28.70
8422;DHT22;4248;48.196;10.924;2023-12-04T11:11:55;-1.90;28.70
8422;DHT22;4248;48.196;10.924;2023-12-04T11:14:25;-1.80;28.90
8422;DHT22;4248;48.196;10.924;2023-12-04T11:16:59;-1.90;29.10
8422;DHT22;4248;48.196;10.924;2023-12-04T11:21:58;-2.20;29.30
8422;DHT22;4248;48.196;10.924;2023-12-04T11:24:24;-2.30;30.00
8422;DHT22;4248;48.196;10.924;2023-12-04T11:26:51;-2.40;30.40
8422;DHT22;4248;48.196;10.924;2023-12-04T11:29:17;-2.40;31.00
8422;DHT22;4248;48.196;10.924;2023-12-04T11:31:44;-2.30;31.20
8422;DHT22;4248;48.196;10.924;2023-12-04T11:34:12;-2.30;31.20
8422;DHT22;4248;48.196;10.924;2023-12-04T11:36:38;-2.20;31.40
8422;DHT22;4248;48.196;10.924;2023-12-04T11:39:09;-2.10;30.90
8422;DHT22;4248;48.196;10.924;2023-12-04T11:41:38;-2.10;31.20
8422;DHT22;4248;48.196;10.924;2023-12-04T11:44:12;-2.00;30.60
8422;DHT22;4248;48.196;10.924;2023-12-04T11:46:38;-1.90;30.50
8422;DHT22;4248;48.196;10.924;2023-12-04T11:49:30;-2.00;30.40
8422;DHT22;4248;48.196;10.924;2023-12-04T11:52:05;-1.90;29.70
8422;DHT22;4248;48.196;10.924;2023-12-04T11:54:58;-1.70;29.60
8422;DHT22;4248;48.196;10.924;2023-12-04T11:57:24;-1.50;29.10
8422;DHT22;4248;48.196;10.924;2023-12-04T11:59:52;-1.30;29.00
8422;DHT22;4248;48.196;10.924;2023-12-04T12:02:17;-1.10;28.60
8422;DHT22;4248;48.196;10.924;2023-12-04T12:04:44;-0.90;28.60
8422;DHT22;4248;48.196;10.924;2023-12-04T12:07:11;-0.90;28.50
8422;DHT22;4248;48.196;10.924;2023-12-04T12:09:36;-1.10;29.40
8422;DHT22;4248;48.196;10.924;2023-12-04T12:12:04;-1.40;29.80
8422;DHT22;4248;48.196;10.924;2023-12-04T12:14:30;-1.30;29.80
8422;DHT22;4248;48.196;10.924;2023-12-04T12:16:59;-0.90;29.70
8422;DHT22;4248;48.196;10.924;2023-12-04T12:19:25;-0.50;28.90
8422;DHT22;4248;48.196;10.924;2023-12-04T12:21:51;-0.40;28.40
8422;DHT22;4248;48.196;10.924;2023-12-04T12:24:18;-0.60;28.90
8422;DHT22;4248;48.196;10.924;2023-12-04T12:26:44;-0.80;29.70
8422;DHT22;4248;48.196;10.924;2023-12-04T12:29:11;-1.00;30.00
8422;DHT22;4248;48.196;10.924;2023-12-04T12:31:36;-0.80;29.90
8422;DHT22;4248;48.196;10.924;2023-12-04T12:34:02;-0.30;29.20
8422;DHT22;4248;48.196;10.924;2023-12-04T12:36:28;0.20;28.60
8422;DHT22;4248;48.196;10.924;2023-12-04T12:38:54;0.70;27.20
8422;DHT22;4248;48.196;10.924;2023-12-04T12:41:21;1.10;26.50
8422;DHT22;4248;48.196;10.924;2023-12-04T12:43:50;1.20;25.60
8422;DHT22;4248;48.196;10.924;2023-12-04T12:46:17;0.90;25.50
8422;DHT22;4248;48.196;10.924;2023-12-04T12:48:43;0.50;25.00
8422;DHT22;4248;48.196;10.924;2023-12-04T12:51:09;0.00;25.70
8422;DHT22;4248;48.196;10.924;2023-12-04T12:53:36;-0.20;26.50
8422;DHT22;4248;48.196;10.924;2023-12-04T12:56:03;-0.50;26.80
8422;DHT22;4248;48.196;10.924;2023-12-04T12:58:29;-0.90;27.50
8422;DHT22;4248;48.196;10.924;2023-12-04T13:00:55;-1.10;28.60
8422;DHT22;4248;48.196;10.924;2023-12-04T13:03:20;-1.30;29.20
8422;DHT22;4248;48.196;10.924;2023-12-04T13:05:48;-1.40;29.20
8422;DHT22;4248;48.196;10.924;2023-12-04T13:08:13;-1.50;29.30
8422;DHT22;4248;48.196;10.924;2023-12-04T13:10:41;-1.60;29.70
8422;DHT22;4248;48.196;10.924;2023-12-04T13:13:13;-1.60;29.70
8422;DHT22;4248;48.196;10.924;2023-12-04T13:15:39;-1.50;29.70
8422;DHT22;4248;48.196;10.924;2023-12-04T13:18:06;-1.30;29.90
8422;DHT22;4248;48.196;10.924;2023-12-04T13:20:32;-1.20;29.30
8422;DHT22;4248;48.196;10.924;2023-12-04T13:22:59;-1.00;29.10
8422;DHT22;4248;48.196;10.924;2023-12-04T13:25:25;-1.00;28.70
8422;DHT22;4248;48.196;10.924;2023-12-04T13:27:50;-0.90;29.10
8422;DHT22;4248;48.196;10.924;2023-12-04T13:30:19;-0.70;28.60
8422;DHT22;4248;48.196;10.924;2023-12-04T13:32:45;-0.40;27.90
8422;DHT22;4248;48.196;10.924;2023-12-04T13:35:12;-0.20;27.50
8422;DHT22;4248;48.196;10.924;2023-12-04T13:37:38;-0.30;27.30
8422;DHT22;4248;48.196;10.924;2023-12-04T13:40:05;-0.20;27.60
8422;DHT22;4248;48.196;10.924;2023-12-04T13:42:38;-0.20;27.40
8422;DHT22;4248;48.196;10.924;2023-12-04T13:45:22;-0.30;27.60
8422;DHT22;4248;48.196;10.924;2023-12-04T13:47:48;-0.50;28.10
8422;DHT22;4248;48.196;10.924;2023-12-04T13:50:14;-0.70;28.10
8422;DHT22;4248;48.196;10.924;2023-12-04T13:52:40;-0.90;28.50
8422;DHT22;4248;48.196;10.924;2023-12-04T13:55:09;-0.90;28.90
8422;DHT22;4248;48.196;10.924;2023-12-04T13:57:45;-0.90;29.00
8422;DHT22;4248;48.196;10.924;2023-12-04T14:00:23;-0.90;29.30
8422;DHT22;4248;48.196;10.924;2023-12-04T14:02:49;-1.00;29.80
8422;DHT22;4248;48.196;10.924;2023-12-04T14:05:21;-1.20;29.90
8422;DHT22;4248;48.196;10.924;2023-12-04T14:07:48;-1.30;29.90
8422;DHT22;4248;48.196;10.924;2023-12-04T14:10:14;-1.20;29.90
8422;DHT22;4248;48.196;10.924;2023-12-04T14:12:40;-1.20;30.00
8422;DHT22;4248;48.196;10.924;2023-12-04T14:15:06;-1.20;29.90
8422;DHT22;4248;48.196;10.924;2023-12-04T14:17:32;-1.30;30.00
8422;DHT22;4248;48.196;10.924;2023-12-04T14:19:59;-1.40;30.10
8422;DHT22;4248;48.196;10.924;2023-12-04T14:22:24;-1.50;30.30
8422;DHT22;4248;48.196;10.924;2023-12-04T14:24:51;-1.60;30.40
8422;DHT22;4248;48.196;10.924;2023-12-04T14:27:17;-1.60;30.60
8422;DHT22;4248;48.196;10.924;2023-12-04T14:29:43;-1.60;30.20
8422;DHT22;4248;48.196;10.924;2023-12-04T14:32:10;-1.60;30.30
8422;DHT22;4248;48.196;10.924;2023-12-04T14:34:36;-1.60;30.50
8422;DHT22;4248;48.196;10.924;2023-12-04T14:37:01;-1.70;30.50
8422;DHT22;4248;48.196;10.924;2023-12-04T14:39:27;-1.70;30.60
8422;DHT22;4248;48.196;10.924;2023-12-04T14:41:53;-1.70;30.60
8422;DHT22;4248;48.196;10.924;2023-12-04T14:44:19;-1.70;31.80
8422;DHT22;4248;48.196;10.924;2023-12-04T14:46:45;-1.70;30.60
8422;DHT22;4248;48.196;10.924;2023-12-04T14:49:11;-1.80;30.70
8422;DHT22;4248;48.196;10.924;2023-12-04T14:51:36;-1.80;30.50
8422;DHT22;4248;48.196;10.924;2023-12-04T14:54:02;-2.00;31.00
8422;DHT22;4248;48.196;10.924;2023-12-04T14:56:49;-2.00;31.20
8422;DHT22;4248;48.196;10.924;2023-12-04T14:59:33;-2.00;31.20
8422;DHT22;4248;48.196;10.924;2023-12-04T15:02:04;-2.10;31.30
8422;DHT22;4248;48.196;10.924;2023-12-04T15:04:48;-2.10;31.50
8422;DHT22;4248;48.196;10.924;2023-12-04T15:07:29;-2.10;31.40
8422;DHT22;4248;48.196;10.924;2023-12-04T15:10:05;-2.10;31.50
8422;DHT22;4248;48.196;10.924;2023-12-04T15:13:03;-2.20;31.40
8422;DHT22;4248;48.196;10.924;2023-12-04T15:15:28;-2.30;31.30
8422;DHT22;4248;48.196;10.924;2023-12-04T15:17:54;-2.40;31.40
8422;DHT22;4248;48.196;10.924;2023-12-04T15:20:42;-2.50;31.60
8422;DHT22;4248;48.196;10.924;2023-12-04T15:23:09;-2.60;31.80
8422;DHT22;4248;48.196;10.924;2023-12-04T15:25:34;-2.60;32.20
8422;DHT22;4248;48.196;10.924;2023-12-04T15:28:00;-2.70;32.20
8422;DHT22;4248;48.196;10.924;2023-12-04T15:30:33;-2.70;32.40
8422;DHT22;4248;48.196;10.924;2023-12-04T15:32:59;-2.80;32.70
8422;DHT22;4248;48.196;10.924;2023-12-04T15:35:25;-2.90;32.70
8422;DHT22;4248;48.196;10.924;2023-12-04T15:37:51;-2.90;32.60
8422;DHT22;4248;48.196;10.924;2023-12-04T15:40:16;-2.90;32.30
8422;DHT22;4248;48.196;10.924;2023-12-04T15:42:42;-3.00;32.70
8422;DHT22;4248;48.196;10.924;2023-12-04T15:45:08;-3.30;33.70